sensor_id;sensor_type;location;lat;lon;timestamp;P1;durP1;ratioP1;P2;durP2;ratioP2
20399;SDS011;10359;53.596;22.520;2023-04-28T00:01:21;10.17;;;6.40;;
20399;SDS011;10359;53.596;22.520;2023-04-28T00:04:10;9.27;;;6.60;;
20399;SDS011;10359;53.596;22.520;2023-04-28T00:07:01;10.53;;;7.03;;
20399;SDS011;10359;53.596;22.520;2023-04-28T00:09:52;10.03;;;6.10;;
20399;SDS011;10359;53.596;22.520;2023-04-28T00:12:43;10.13;;;6.63;;
20399;SDS011;10359;53.596;22.520;2023-04-28T00:15:32;9.87;;;6.53;;
20399;SDS011;10359;53.596;22.520;2023-04-28T00:18:22;9.23;;;6.37;;
20399;SDS011;10359;53.596;22.520;2023-04-28T00:21:11;12.47;;;6.43;;
20399;SDS011;10359;53.596;22.520;2023-04-28T00:24:01;12.30;;;6.97;;
20399;SDS011;10359;53.596;22.520;2023-04-28T00:26:52;8.93;;;6.17;;
20399;SDS011;10359;53.596;22.520;2023-04-28T00:29:43;8.20;;;5.77;;
20399;SDS011;10359;53.596;22.520;2023-04-28T00:32:33;11.20;;;6.03;;
20399;SDS011;10359;53.596;22.520;2023-04-28T00:35:23;8.60;;;6.00;;
20399;SDS011;10359;53.596;22.520;2023-04-28T00:38:13;8.00;;;5.63;;
20399;SDS011;10359;53.596;22.520;2023-04-28T00:41:02;8.93;;;5.47;;
20399;SDS011;10359;53.596;22.520;2023-04-28T00:43:54;9.00;;;5.83;;
20399;SDS011;10359;53.596;22.520;2023-04-28T00:46:43;9.17;;;5.37;;
20399;SDS011;10359;53.596;22.520;2023-04-28T00:49:34;7.73;;;5.97;;
20399;SDS011;10359;53.596;22.520;2023-04-28T00:52:24;10.53;;;6.17;;
20399;SDS011;10359;53.596;22.520;2023-04-28T00:55:14;9.67;;;5.80;;
20399;SDS011;10359;53.596;22.520;2023-04-28T00:58:04;8.30;;;5.60;;
20399;SDS011;10359;53.596;22.520;2023-04-28T01:01:01;9.10;;;5.97;;
20399;SDS011;10359;53.596;22.520;2023-04-28T01:03:52;6.67;;;5.23;;
20399;SDS011;10359;53.596;22.520;2023-04-28T01:06:48;9.90;;;5.27;;
20399;SDS011;10359;53.596;22.520;2023-04-28T01:09:40;7.17;;;5.23;;
20399;SDS011;10359;53.596;22.520;2023-04-28T01:12:30;8.07;;;4.83;;
20399;SDS011;10359;53.596;22.520;2023-04-28T01:15:19;8.70;;;5.33;;
20399;SDS011;10359;53.596;22.520;2023-04-28T01:18:11;6.00;;;5.37;;
20399;SDS011;10359;53.596;22.520;2023-04-28T01:21:01;8.50;;;5.50;;
20399;SDS011;10359;53.596;22.520;2023-04-28T01:23:52;8.23;;;5.30;;
20399;SDS011;10359;53.596;22.520;2023-04-28T01:26:42;7.93;;;5.20;;
20399;SDS011;10359;53.596;22.520;2023-04-28T01:29:32;8.20;;;5.33;;
20399;SDS011;10359;53.596;22.520;2023-04-28T01:32:22;7.97;;;5.20;;
20399;SDS011;10359;53.596;22.520;2023-04-28T01:35:11;7.97;;;5.63;;
20399;SDS011;10359;53.596;22.520;2023-04-28T01:38:01;7.97;;;5.33;;
20399;SDS011;10359;53.596;22.520;2023-04-28T01:40:53;7.70;;;4.93;;
20399;SDS011;10359;53.596;22.520;2023-04-28T01:43:42;10.40;;;6.20;;
20399;SDS011;10359;53.596;22.520;2023-04-28T01:46:32;9.97;;;5.57;;
20399;SDS011;10359;53.596;22.520;2023-04-28T01:49:22;7.33;;;4.77;;
20399;SDS011;10359;53.596;22.520;2023-04-28T01:52:12;9.10;;;5.43;;
20399;SDS011;10359;53.596;22.520;2023-04-28T01:55:02;8.90;;;4.97;;
20399;SDS011;10359;53.596;22.520;2023-04-28T01:57:55;7.50;;;5.13;;
20399;SDS011;10359;53.596;22.520;2023-04-28T02:00:46;9.43;;;5.00;;
20399;SDS011;10359;53.596;22.520;2023-04-28T02:03:35;10.90;;;5.70;;
20399;SDS011;10359;53.596;22.520;2023-04-28T02:06:26;7.93;;;5.53;;
20399;SDS011;10359;53.596;22.520;2023-04-28T02:09:15;8.63;;;5.40;;
20399;SDS011;10359;53.596;22.520;2023-04-28T02:15:30;8.13;;;5.40;;
20399;SDS011;10359;53.596;22.520;2023-04-28T02:18:21;7.50;;;5.70;;
20399;SDS011;10359;53.596;22.520;2023-04-28T02:21:11;7.07;;;4.73;;
20399;SDS011;10359;53.596;22.520;2023-04-28T02:24:01;9.77;;;5.67;;
20399;SDS011;10359;53.596;22.520;2023-04-28T02:26:50;8.33;;;5.47;;
20399;SDS011;10359;53.596;22.520;2023-04-28T02:29:40;9.47;;;5.20;;
20399;SDS011;10359;53.596;22.520;2023-04-28T02:32:31;7.60;;;4.80;;
20399;SDS011;10359;53.596;22.520;2023-04-28T02:35:21;7.40;;;5.00;;
20399;SDS011;10359;53.596;22.520;2023-04-28T02:38:11;7.87;;;5.10;;
20399;SDS011;10359;53.596;22.520;2023-04-28T02:41:01;8.00;;;4.63;;
20399;SDS011;10359;53.596;22.520;2023-04-28T02:43:52;7.93;;;5.27;;
20399;SDS011;10359;53.596;22.520;2023-04-28T02:46:43;13.00;;;5.40;;
20399;SDS011;10359;53.596;22.520;2023-04-28T02:49:34;9.03;;;5.60;;
20399;SDS011;10359;53.596;22.520;2023-04-28T02:52:24;8.30;;;4.97;;
20399;SDS011;10359;53.596;22.520;2023-04-28T02:55:14;7.30;;;4.87;;
20399;SDS011;10359;53.596;22.520;2023-04-28T02:58:10;8.87;;;5.30;;
20399;SDS011;10359;53.596;22.520;2023-04-28T03:00:59;7.47;;;4.97;;
20399;SDS011;10359;53.596;22.520;2023-04-28T03:03:49;9.10;;;5.57;;
20399;SDS011;10359;53.596;22.520;2023-04-28T03:06:41;7.37;;;5.37;;
20399;SDS011;10359;53.596;22.520;2023-04-28T03:09:30;9.40;;;5.50;;
20399;SDS011;10359;53.596;22.520;2023-04-28T03:12:20;9.07;;;5.30;;
20399;SDS011;10359;53.596;22.520;2023-04-28T03:15:10;11.53;;;5.87;;
20399;SDS011;10359;53.596;22.520;2023-04-28T03:18:00;6.70;;;4.57;;
20399;SDS011;10359;53.596;22.520;2023-04-28T03:20:50;9.20;;;4.73;;
20399;SDS011;10359;53.596;22.520;2023-04-28T03:23:41;8.43;;;5.47;;
20399;SDS011;10359;53.596;22.520;2023-04-28T03:26:30;9.07;;;5.10;;
20399;SDS011;10359;53.596;22.520;2023-04-28T03:29:20;8.60;;;5.60;;
20399;SDS011;10359;53.596;22.520;2023-04-28T03:32:11;9.63;;;5.50;;
20399;SDS011;10359;53.596;22.520;2023-04-28T03:35:01;10.40;;;5.40;;
20399;SDS011;10359;53.596;22.520;2023-04-28T03:37:51;11.40;;;5.83;;
20399;SDS011;10359;53.596;22.520;2023-04-28T03:40:42;11.60;;;5.40;;
20399;SDS011;10359;53.596;22.520;2023-04-28T03:43:32;7.70;;;4.77;;
20399;SDS011;10359;53.596;22.520;2023-04-28T03:46:23;9.53;;;5.53;;
20399;SDS011;10359;53.596;22.520;2023-04-28T03:49:13;10.10;;;6.23;;
20399;SDS011;10359;53.596;22.520;2023-04-28T03:52:03;11.57;;;5.90;;
20399;SDS011;10359;53.596;22.520;2023-04-28T03:54:52;9.67;;;5.60;;
20399;SDS011;10359;53.596;22.520;2023-04-28T03:57:43;8.87;;;5.30;;
20399;SDS011;10359;53.596;22.520;2023-04-28T04:00:33;8.27;;;5.57;;
20399;SDS011;10359;53.596;22.520;2023-04-28T04:03:23;8.30;;;5.47;;
20399;SDS011;10359;53.596;22.520;2023-04-28T04:06:13;9.63;;;6.07;;
20399;SDS011;10359;53.596;22.520;2023-04-28T04:09:03;11.97;;;6.10;;
20399;SDS011;10359;53.596;22.520;2023-04-28T04:11:53;10.03;;;5.90;;
20399;SDS011;10359;53.596;22.520;2023-04-28T04:14:44;10.33;;;6.00;;
20399;SDS011;10359;53.596;22.520;2023-04-28T04:17:34;13.17;;;6.97;;
20399;SDS011;10359;53.596;22.520;2023-04-28T04:20:23;14.73;;;7.53;;
20399;SDS011;10359;53.596;22.520;2023-04-28T04:23:13;11.10;;;5.70;;
20399;SDS011;10359;53.596;22.520;2023-04-28T04:26:03;15.83;;;7.17;;
20399;SDS011;10359;53.596;22.520;2023-04-28T04:28:52;13.70;;;7.07;;
20399;SDS011;10359;53.596;22.520;2023-04-28T04:31:43;9.27;;;5.70;;
20399;SDS011;10359;53.596;22.520;2023-04-28T04:34:33;10.73;;;6.70;;
20399;SDS011;10359;53.596;22.520;2023-04-28T04:37:23;12.63;;;6.90;;
20399;SDS011;10359;53.596;22.520;2023-04-28T04:40:12;13.03;;;7.40;;
20399;SDS011;10359;53.596;22.520;2023-04-28T04:43:02;7.93;;;5.80;;
20399;SDS011;10359;53.596;22.520;2023-04-28T04:45:52;9.80;;;6.57;;
20399;SDS011;10359;53.596;22.520;2023-04-28T04:48:43;13.03;;;7.03;;
20399;SDS011;10359;53.596;22.520;2023-04-28T04:51:33;9.87;;;7.20;;
20399;SDS011;10359;53.596;22.520;2023-04-28T04:54:22;11.23;;;7.03;;
20399;SDS011;10359;53.596;22.520;2023-04-28T04:57:12;15.53;;;8.50;;
20399;SDS011;10359;53.596;22.520;2023-04-28T05:00:02;13.83;;;8.20;;
20399;SDS011;10359;53.596;22.520;2023-04-28T05:02:52;16.10;;;8.83;;
20399;SDS011;10359;53.596;22.520;2023-04-28T05:05:44;13.63;;;8.60;;
20399;SDS011;10359;53.596;22.520;2023-04-28T05:08:33;11.60;;;7.80;;
20399;SDS011;10359;53.596;22.520;2023-04-28T05:11:23;12.77;;;8.30;;
20399;SDS011;10359;53.596;22.520;2023-04-28T05:14:13;11.83;;;8.10;;
20399;SDS011;10359;53.596;22.520;2023-04-28T05:17:04;12.73;;;8.17;;
20399;SDS011;10359;53.596;22.520;2023-04-28T05:19:53;12.17;;;8.60;;
20399;SDS011;10359;53.596;22.520;2023-04-28T05:22:44;12.97;;;8.57;;
20399;SDS011;10359;53.596;22.520;2023-04-28T05:25:34;13.13;;;7.97;;
20399;SDS011;10359;53.596;22.520;2023-04-28T05:28:23;13.53;;;8.07;;
20399;SDS011;10359;53.596;22.520;2023-04-28T05:31:13;13.73;;;8.30;;
20399;SDS011;10359;53.596;22.520;2023-04-28T05:34:04;12.27;;;7.87;;
20399;SDS011;10359;53.596;22.520;2023-04-28T05:36:53;12.20;;;7.57;;
20399;SDS011;10359;53.596;22.520;2023-04-28T05:39:44;11.87;;;7.40;;
20399;SDS011;10359;53.596;22.520;2023-04-28T05:42:34;11.80;;;6.87;;
20399;SDS011;10359;53.596;22.520;2023-04-28T05:45:23;11.27;;;7.00;;
20399;SDS011;10359;53.596;22.520;2023-04-28T05:48:13;12.17;;;6.60;;
20399;SDS011;10359;53.596;22.520;2023-04-28T05:51:03;9.90;;;6.60;;
20399;SDS011;10359;53.596;22.520;2023-04-28T05:53:53;10.73;;;6.50;;
20399;SDS011;10359;53.596;22.520;2023-04-28T05:56:44;9.00;;;6.57;;
20399;SDS011;10359;53.596;22.520;2023-04-28T05:59:34;10.43;;;6.23;;
20399;SDS011;10359;53.596;22.520;2023-04-28T06:02:23;8.43;;;6.33;;
20399;SDS011;10359;53.596;22.520;2023-04-28T06:05:13;7.50;;;5.97;;
20399;SDS011;10359;53.596;22.520;2023-04-28T06:08:03;10.00;;;5.90;;
20399;SDS011;10359;53.596;22.520;2023-04-28T06:10:54;7.20;;;5.73;;
20399;SDS011;10359;53.596;22.520;2023-04-28T06:13:45;6.53;;;5.23;;
20399;SDS011;10359;53.596;22.520;2023-04-28T06:16:34;7.90;;;4.00;;
20399;SDS011;10359;53.596;22.520;2023-04-28T06:19:24;4.73;;;3.30;;
20399;SDS011;10359;53.596;22.520;2023-04-28T06:22:13;3.63;;;2.73;;
20399;SDS011;10359;53.596;22.520;2023-04-28T06:25:03;5.50;;;3.07;;
20399;SDS011;10359;53.596;22.520;2023-04-28T06:27:53;5.50;;;2.83;;
20399;SDS011;10359;53.596;22.520;2023-04-28T06:30:44;4.30;;;2.50;;
20399;SDS011;10359;53.596;22.520;2023-04-28T06:33:34;5.03;;;2.77;;
20399;SDS011;10359;53.596;22.520;2023-04-28T06:36:24;4.13;;;2.63;;
20399;SDS011;10359;53.596;22.520;2023-04-28T06:39:14;5.37;;;2.60;;
20399;SDS011;10359;53.596;22.520;2023-04-28T06:42:04;4.43;;;2.27;;
20399;SDS011;10359;53.596;22.520;2023-04-28T06:44:54;2.70;;;2.17;;
20399;SDS011;10359;53.596;22.520;2023-04-28T06:47:45;4.47;;;2.80;;
20399;SDS011;10359;53.596;22.520;2023-04-28T06:50:35;4.57;;;2.63;;
20399;SDS011;10359;53.596;22.520;2023-04-28T06:53:29;4.07;;;2.17;;
20399;SDS011;10359;53.596;22.520;2023-04-28T06:56:18;3.83;;;2.67;;
20399;SDS011;10359;53.596;22.520;2023-04-28T06:59:08;5.37;;;2.70;;
20399;SDS011;10359;53.596;22.520;2023-04-28T07:01:58;3.77;;;2.17;;
20399;SDS011;10359;53.596;22.520;2023-04-28T07:04:49;3.63;;;2.40;;
20399;SDS011;10359;53.596;22.520;2023-04-28T07:07:39;3.30;;;1.80;;
20399;SDS011;10359;53.596;22.520;2023-04-28T07:10:29;3.60;;;2.10;;
20399;SDS011;10359;53.596;22.520;2023-04-28T07:13:18;2.70;;;2.50;;
20399;SDS011;10359;53.596;22.520;2023-04-28T07:16:08;1.50;;;1.40;;
20399;SDS011;10359;53.596;22.520;2023-04-28T07:18:58;3.80;;;1.83;;
20399;SDS011;10359;53.596;22.520;2023-04-28T07:21:49;2.13;;;1.60;;
20399;SDS011;10359;53.596;22.520;2023-04-28T07:24:39;4.67;;;1.93;;
20399;SDS011;10359;53.596;22.520;2023-04-28T07:27:29;4.93;;;2.03;;
20399;SDS011;10359;53.596;22.520;2023-04-28T07:30:18;3.30;;;1.90;;
20399;SDS011;10359;53.596;22.520;2023-04-28T07:33:14;2.57;;;1.40;;
20399;SDS011;10359;53.596;22.520;2023-04-28T07:36:03;3.60;;;1.80;;
20399;SDS011;10359;53.596;22.520;2023-04-28T07:38:55;3.80;;;2.10;;
20399;SDS011;10359;53.596;22.520;2023-04-28T07:41:44;3.27;;;1.57;;
20399;SDS011;10359;53.596;22.520;2023-04-28T07:44:34;2.23;;;1.50;;
20399;SDS011;10359;53.596;22.520;2023-04-28T07:47:24;1.53;;;1.43;;
20399;SDS011;10359;53.596;22.520;2023-04-28T07:50:15;2.47;;;1.40;;
20399;SDS011;10359;53.596;22.520;2023-04-28T07:53:05;2.80;;;1.27;;
20399;SDS011;10359;53.596;22.520;2023-04-28T07:55:56;1.83;;;1.40;;
20399;SDS011;10359;53.596;22.520;2023-04-28T07:58:47;2.20;;;1.50;;
20399;SDS011;10359;53.596;22.520;2023-04-28T08:01:37;1.80;;;1.40;;
20399;SDS011;10359;53.596;22.520;2023-04-28T08:04:27;1.47;;;1.30;;
20399;SDS011;10359;53.596;22.520;2023-04-28T08:07:19;1.70;;;1.20;;
20399;SDS011;10359;53.596;22.520;2023-04-28T08:10:09;2.23;;;1.57;;
20399;SDS011;10359;53.596;22.520;2023-04-28T08:13:00;2.30;;;1.57;;
20399;SDS011;10359;53.596;22.520;2023-04-28T08:15:50;3.20;;;1.50;;
20399;SDS011;10359;53.596;22.520;2023-04-28T08:18:42;1.67;;;1.30;;
20399;SDS011;10359;53.596;22.520;2023-04-28T08:21:32;2.30;;;1.43;;
20399;SDS011;10359;53.596;22.520;2023-04-28T08:24:21;3.90;;;1.50;;
20399;SDS011;10359;53.596;22.520;2023-04-28T08:27:11;1.80;;;1.60;;
20399;SDS011;10359;53.596;22.520;2023-04-28T08:30:02;1.60;;;1.50;;
20399;SDS011;10359;53.596;22.520;2023-04-28T08:32:53;1.57;;;0.80;;
20399;SDS011;10359;53.596;22.520;2023-04-28T08:35:43;1.70;;;1.20;;
20399;SDS011;10359;53.596;22.520;2023-04-28T08:38:33;3.60;;;1.50;;
20399;SDS011;10359;53.596;22.520;2023-04-28T08:41:22;2.07;;;0.93;;
20399;SDS011;10359;53.596;22.520;2023-04-28T08:44:14;1.63;;;1.10;;
20399;SDS011;10359;53.596;22.520;2023-04-28T08:47:07;3.80;;;1.40;;
20399;SDS011;10359;53.596;22.520;2023-04-28T08:50:03;2.50;;;1.23;;
20399;SDS011;10359;53.596;22.520;2023-04-28T08:52:55;2.50;;;1.50;;
20399;SDS011;10359;53.596;22.520;2023-04-28T08:55:45;1.87;;;1.30;;
20399;SDS011;10359;53.596;22.520;2023-04-28T08:58:36;1.77;;;1.40;;
20399;SDS011;10359;53.596;22.520;2023-04-28T09:01:28;3.17;;;1.30;;
20399;SDS011;10359;53.596;22.520;2023-04-28T09:04:19;1.73;;;1.43;;
20399;SDS011;10359;53.596;22.520;2023-04-28T09:07:11;2.07;;;1.30;;
20399;SDS011;10359;53.596;22.520;2023-04-28T09:10:16;1.80;;;1.50;;
20399;SDS011;10359;53.596;22.520;2023-04-28T09:13:07;2.70;;;1.40;;
20399;SDS011;10359;53.596;22.520;2023-04-28T09:15:58;1.90;;;1.23;;
20399;SDS011;10359;53.596;22.520;2023-04-28T09:18:58;1.83;;;1.40;;
20399;SDS011;10359;53.596;22.520;2023-04-28T09:21:50;1.50;;;1.20;;
20399;SDS011;10359;53.596;22.520;2023-04-28T09:24:41;2.20;;;1.70;;
20399;SDS011;10359;53.596;22.520;2023-04-28T09:27:31;1.60;;;1.50;;
20399;SDS011;10359;53.596;22.520;2023-04-28T09:30:35;2.70;;;1.50;;
20399;SDS011;10359;53.596;22.520;2023-04-28T09:33:27;2.00;;;1.70;;
20399;SDS011;10359;53.596;22.520;2023-04-28T09:36:24;3.60;;;1.30;;
20399;SDS011;10359;53.596;22.520;2023-04-28T09:39:28;2.10;;;1.50;;
20399;SDS011;10359;53.596;22.520;2023-04-28T09:42:32;1.80;;;1.20;;
20399;SDS011;10359;53.596;22.520;2023-04-28T09:45:22;1.50;;;1.40;;
20399;SDS011;10359;53.596;22.520;2023-04-28T09:48:16;1.50;;;1.20;;
20399;SDS011;10359;53.596;22.520;2023-04-28T09:51:06;2.63;;;1.50;;
20399;SDS011;10359;53.596;22.520;2023-04-28T09:53:59;1.97;;;1.57;;
20399;SDS011;10359;53.596;22.520;2023-04-28T09:56:51;2.00;;;1.00;;
20399;SDS011;10359;53.596;22.520;2023-04-28T09:59:43;1.97;;;1.10;;
20399;SDS011;10359;53.596;22.520;2023-04-28T10:02:37;1.30;;;1.17;;
20399;SDS011;10359;53.596;22.520;2023-04-28T10:05:30;1.53;;;1.03;;
20399;SDS011;10359;53.596;22.520;2023-04-28T10:08:21;2.20;;;1.20;;
20399;SDS011;10359;53.596;22.520;2023-04-28T10:11:11;2.63;;;1.10;;
20399;SDS011;10359;53.596;22.520;2023-04-28T10:14:04;1.60;;;0.97;;
20399;SDS011;10359;53.596;22.520;2023-04-28T10:16:53;1.77;;;1.20;;
20399;SDS011;10359;53.596;22.520;2023-04-28T10:19:46;2.10;;;1.20;;
20399;SDS011;10359;53.596;22.520;2023-04-28T10:22:42;2.83;;;0.93;;
20399;SDS011;10359;53.596;22.520;2023-04-28T10:25:47;2.40;;;1.30;;
20399;SDS011;10359;53.596;22.520;2023-04-28T10:28:43;1.50;;;1.00;;
20399;SDS011;10359;53.596;22.520;2023-04-28T10:31:36;0.97;;;0.97;;
20399;SDS011;10359;53.596;22.520;2023-04-28T10:34:26;1.97;;;1.20;;
20399;SDS011;10359;53.596;22.520;2023-04-28T10:37:17;1.87;;;1.20;;
20399;SDS011;10359;53.596;22.520;2023-04-28T10:43:34;1.60;;;1.40;;
20399;SDS011;10359;53.596;22.520;2023-04-28T10:46:28;2.10;;;1.30;;
20399;SDS011;10359;53.596;22.520;2023-04-28T10:50:08;1.70;;;1.40;;
20399;SDS011;10359;53.596;22.520;2023-04-28T10:52:59;1.80;;;1.30;;
20399;SDS011;10359;53.596;22.520;2023-04-28T10:55:52;1.93;;;1.23;;
20399;SDS011;10359;53.596;22.520;2023-04-28T10:58:54;3.03;;;1.40;;
20399;SDS011;10359;53.596;22.520;2023-04-28T11:01:44;3.80;;;1.20;;
20399;SDS011;10359;53.596;22.520;2023-04-28T11:04:37;2.00;;;1.10;;
20399;SDS011;10359;53.596;22.520;2023-04-28T11:11:22;2.23;;;1.27;;
20399;SDS011;10359;53.596;22.520;2023-04-28T11:14:32;1.10;;;1.10;;
20399;SDS011;10359;53.596;22.520;2023-04-28T11:17:33;1.87;;;1.10;;
20399;SDS011;10359;53.596;22.520;2023-04-28T11:20:29;2.33;;;1.60;;
20399;SDS011;10359;53.596;22.520;2023-04-28T11:23:19;2.50;;;1.40;;
20399;SDS011;10359;53.596;22.520;2023-04-28T11:26:09;1.57;;;1.30;;
20399;SDS011;10359;53.596;22.520;2023-04-28T11:28:59;1.37;;;1.27;;
20399;SDS011;10359;53.596;22.520;2023-04-28T11:31:49;1.37;;;1.20;;
20399;SDS011;10359;53.596;22.520;2023-04-28T11:34:39;2.27;;;1.13;;
20399;SDS011;10359;53.596;22.520;2023-04-28T11:37:31;2.07;;;1.23;;
20399;SDS011;10359;53.596;22.520;2023-04-28T11:40:21;2.07;;;1.40;;
20399;SDS011;10359;53.596;22.520;2023-04-28T11:43:11;1.70;;;1.40;;
20399;SDS011;10359;53.596;22.520;2023-04-28T11:46:01;1.60;;;1.03;;
20399;SDS011;10359;53.596;22.520;2023-04-28T11:48:59;1.43;;;1.33;;
20399;SDS011;10359;53.596;22.520;2023-04-28T11:51:50;2.57;;;1.20;;
20399;SDS011;10359;53.596;22.520;2023-04-28T11:54:42;1.10;;;1.00;;
20399;SDS011;10359;53.596;22.520;2023-04-28T11:57:32;1.77;;;1.13;;
20399;SDS011;10359;53.596;22.520;2023-04-28T12:00:22;3.50;;;1.50;;
20399;SDS011;10359;53.596;22.520;2023-04-28T12:03:13;1.93;;;1.30;;
20399;SDS011;10359;53.596;22.520;2023-04-28T12:06:03;1.63;;;1.47;;
20399;SDS011;10359;53.596;22.520;2023-04-28T12:08:53;1.23;;;1.13;;
20399;SDS011;10359;53.596;22.520;2023-04-28T12:11:55;1.43;;;1.13;;
20399;SDS011;10359;53.596;22.520;2023-04-28T12:14:55;2.20;;;1.23;;
20399;SDS011;10359;53.596;22.520;2023-04-28T12:17:45;3.03;;;1.30;;
20399;SDS011;10359;53.596;22.520;2023-04-28T12:20:37;2.43;;;1.30;;
20399;SDS011;10359;53.596;22.520;2023-04-28T12:23:30;1.93;;;1.30;;
20399;SDS011;10359;53.596;22.520;2023-04-28T12:26:23;1.63;;;1.30;;
20399;SDS011;10359;53.596;22.520;2023-04-28T12:32:36;1.37;;;1.10;;
20399;SDS011;10359;53.596;22.520;2023-04-28T12:35:27;1.73;;;1.20;;
20399;SDS011;10359;53.596;22.520;2023-04-28T12:38:17;2.63;;;1.20;;
20399;SDS011;10359;53.596;22.520;2023-04-28T12:41:07;2.87;;;1.20;;
20399;SDS011;10359;53.596;22.520;2023-04-28T12:43:57;3.20;;;1.27;;
20399;SDS011;10359;53.596;22.520;2023-04-28T12:46:52;3.07;;;1.60;;
20399;SDS011;10359;53.596;22.520;2023-04-28T12:49:46;3.03;;;1.50;;
20399;SDS011;10359;53.596;22.520;2023-04-28T12:52:39;2.30;;;1.27;;
20399;SDS011;10359;53.596;22.520;2023-04-28T12:55:29;2.30;;;1.40;;
20399;SDS011;10359;53.596;22.520;2023-04-28T12:58:20;2.30;;;1.50;;
20399;SDS011;10359;53.596;22.520;2023-04-28T13:01:09;2.07;;;1.40;;
20399;SDS011;10359;53.596;22.520;2023-04-28T13:04:01;1.97;;;1.10;;
20399;SDS011;10359;53.596;22.520;2023-04-28T13:06:51;3.17;;;1.20;;
20399;SDS011;10359;53.596;22.520;2023-04-28T13:09:41;2.57;;;1.37;;
20399;SDS011;10359;53.596;22.520;2023-04-28T13:12:32;2.10;;;1.50;;
20399;SDS011;10359;53.596;22.520;2023-04-28T13:15:22;2.23;;;1.43;;
20399;SDS011;10359;53.596;22.520;2023-04-28T13:18:11;2.43;;;1.33;;
20399;SDS011;10359;53.596;22.520;2023-04-28T13:21:03;1.63;;;1.17;;
20399;SDS011;10359;53.596;22.520;2023-04-28T13:23:53;5.27;;;1.40;;
20399;SDS011;10359;53.596;22.520;2023-04-28T13:26:43;3.27;;;1.20;;
20399;SDS011;10359;53.596;22.520;2023-04-28T13:29:33;2.63;;;1.40;;
20399;SDS011;10359;53.596;22.520;2023-04-28T13:32:22;1.50;;;1.40;;
20399;SDS011;10359;53.596;22.520;2023-04-28T13:35:14;1.37;;;1.27;;
20399;SDS011;10359;53.596;22.520;2023-04-28T13:38:05;2.37;;;1.40;;
20399;SDS011;10359;53.596;22.520;2023-04-28T13:40:55;2.37;;;1.20;;
20399;SDS011;10359;53.596;22.520;2023-04-28T13:43:45;1.97;;;1.30;;
20399;SDS011;10359;53.596;22.520;2023-04-28T13:46:35;1.60;;;1.50;;
20399;SDS011;10359;53.596;22.520;2023-04-28T13:49:26;3.00;;;1.47;;
20399;SDS011;10359;53.596;22.520;2023-04-28T13:52:16;1.17;;;1.07;;
20399;SDS011;10359;53.596;22.520;2023-04-28T13:55:10;2.00;;;1.57;;
20399;SDS011;10359;53.596;22.520;2023-04-28T13:58:00;2.43;;;1.40;;
20399;SDS011;10359;53.596;22.520;2023-04-28T14:00:51;1.77;;;1.30;;
20399;SDS011;10359;53.596;22.520;2023-04-28T14:03:43;1.87;;;1.33;;
20399;SDS011;10359;53.596;22.520;2023-04-28T14:06:33;2.70;;;1.40;;
20399;SDS011;10359;53.596;22.520;2023-04-28T14:09:23;2.13;;;1.33;;
20399;SDS011;10359;53.596;22.520;2023-04-28T14:12:20;2.50;;;1.60;;
20399;SDS011;10359;53.596;22.520;2023-04-28T14:15:10;1.50;;;1.30;;
20399;SDS011;10359;53.596;22.520;2023-04-28T14:17:59;1.30;;;1.20;;
20399;SDS011;10359;53.596;22.520;2023-04-28T14:20:51;3.37;;;1.53;;
20399;SDS011;10359;53.596;22.520;2023-04-28T14:23:43;2.50;;;1.60;;
20399;SDS011;10359;53.596;22.520;2023-04-28T14:26:34;1.60;;;1.30;;
20399;SDS011;10359;53.596;22.520;2023-04-28T14:29:26;2.87;;;1.60;;
20399;SDS011;10359;53.596;22.520;2023-04-28T14:32:16;3.20;;;1.70;;
20399;SDS011;10359;53.596;22.520;2023-04-28T14:35:07;2.60;;;1.43;;
20399;SDS011;10359;53.596;22.520;2023-04-28T14:37:59;2.10;;;1.50;;
20399;SDS011;10359;53.596;22.520;2023-04-28T14:40:49;1.53;;;1.27;;
20399;SDS011;10359;53.596;22.520;2023-04-28T14:43:39;2.87;;;1.50;;
20399;SDS011;10359;53.596;22.520;2023-04-28T14:46:30;2.30;;;1.50;;
20399;SDS011;10359;53.596;22.520;2023-04-28T14:49:20;2.10;;;1.50;;
20399;SDS011;10359;53.596;22.520;2023-04-28T14:52:11;1.93;;;1.50;;
20399;SDS011;10359;53.596;22.520;2023-04-28T14:55:01;4.10;;;1.50;;
20399;SDS011;10359;53.596;22.520;2023-04-28T14:57:51;2.67;;;1.37;;
20399;SDS011;10359;53.596;22.520;2023-04-28T15:00:41;2.27;;;1.40;;
20399;SDS011;10359;53.596;22.520;2023-04-28T15:03:32;3.13;;;1.23;;
20399;SDS011;10359;53.596;22.520;2023-04-28T15:06:23;3.50;;;1.50;;
20399;SDS011;10359;53.596;22.520;2023-04-28T15:09:13;2.83;;;1.57;;
20399;SDS011;10359;53.596;22.520;2023-04-28T15:12:03;1.87;;;1.63;;
20399;SDS011;10359;53.596;22.520;2023-04-28T15:14:53;4.33;;;1.50;;
20399;SDS011;10359;53.596;22.520;2023-04-28T15:17:42;2.20;;;1.30;;
20399;SDS011;10359;53.596;22.520;2023-04-28T15:20:34;3.27;;;1.60;;
20399;SDS011;10359;53.596;22.520;2023-04-28T15:23:24;1.87;;;1.50;;
20399;SDS011;10359;53.596;22.520;2023-04-28T15:26:14;1.77;;;1.60;;
20399;SDS011;10359;53.596;22.520;2023-04-28T15:29:04;2.77;;;1.50;;
20399;SDS011;10359;53.596;22.520;2023-04-28T15:31:54;1.60;;;1.50;;
20399;SDS011;10359;53.596;22.520;2023-04-28T15:34:44;2.90;;;1.57;;
20399;SDS011;10359;53.596;22.520;2023-04-28T15:37:38;1.90;;;1.30;;
20399;SDS011;10359;53.596;22.520;2023-04-28T15:40:30;5.00;;;1.67;;
20399;SDS011;10359;53.596;22.520;2023-04-28T15:43:20;2.07;;;1.40;;
20399;SDS011;10359;53.596;22.520;2023-04-28T15:46:11;2.27;;;1.60;;
20399;SDS011;10359;53.596;22.520;2023-04-28T15:49:03;1.87;;;1.47;;
20399;SDS011;10359;53.596;22.520;2023-04-28T15:51:53;2.33;;;1.60;;
20399;SDS011;10359;53.596;22.520;2023-04-28T15:54:45;1.93;;;1.50;;
20399;SDS011;10359;53.596;22.520;2023-04-28T15:57:35;2.20;;;1.20;;
20399;SDS011;10359;53.596;22.520;2023-04-28T16:00:25;2.37;;;1.43;;
20399;SDS011;10359;53.596;22.520;2023-04-28T16:03:15;2.67;;;1.60;;
20399;SDS011;10359;53.596;22.520;2023-04-28T16:06:05;2.00;;;1.30;;
20399;SDS011;10359;53.596;22.520;2023-04-28T16:08:55;2.70;;;1.43;;
20399;SDS011;10359;53.596;22.520;2023-04-28T16:11:46;2.43;;;1.80;;
20399;SDS011;10359;53.596;22.520;2023-04-28T16:14:36;1.57;;;1.27;;
20399;SDS011;10359;53.596;22.520;2023-04-28T16:17:26;2.50;;;1.53;;
20399;SDS011;10359;53.596;22.520;2023-04-28T16:20:17;3.23;;;2.00;;
20399;SDS011;10359;53.596;22.520;2023-04-28T16:23:08;3.87;;;1.70;;
20399;SDS011;10359;53.596;22.520;2023-04-28T16:26:00;2.33;;;1.53;;
20399;SDS011;10359;53.596;22.520;2023-04-28T16:28:51;1.47;;;1.37;;
20399;SDS011;10359;53.596;22.520;2023-04-28T16:31:40;1.80;;;1.53;;
20399;SDS011;10359;53.596;22.520;2023-04-28T16:34:30;2.80;;;1.50;;
20399;SDS011;10359;53.596;22.520;2023-04-28T16:37:20;2.70;;;1.70;;
20399;SDS011;10359;53.596;22.520;2023-04-28T16:40:11;3.13;;;1.43;;
20399;SDS011;10359;53.596;22.520;2023-04-28T16:43:01;2.27;;;1.60;;
20399;SDS011;10359;53.596;22.520;2023-04-28T16:45:52;3.17;;;1.63;;
20399;SDS011;10359;53.596;22.520;2023-04-28T16:48:42;2.43;;;1.70;;
20399;SDS011;10359;53.596;22.520;2023-04-28T16:51:32;3.17;;;1.63;;
20399;SDS011;10359;53.596;22.520;2023-04-28T16:54:22;2.90;;;1.63;;
20399;SDS011;10359;53.596;22.520;2023-04-28T16:57:14;3.13;;;1.47;;
20399;SDS011;10359;53.596;22.520;2023-04-28T17:00:04;2.40;;;1.50;;
20399;SDS011;10359;53.596;22.520;2023-04-28T17:02:56;3.10;;;1.70;;
20399;SDS011;10359;53.596;22.520;2023-04-28T17:05:46;3.10;;;1.50;;
20399;SDS011;10359;53.596;22.520;2023-04-28T17:08:36;2.43;;;1.47;;